sensor_id;sensor_type;location;lat;lon;timestamp;P1;durP1;ratioP1;P2;durP2;ratioP2
20861;SDS011;10591;52.532;13.348;2024-03-08T00:01:29;25.10;;;16.82;;
20861;SDS011;10591;52.532;13.348;2024-03-08T00:03:59;26.00;;;16.07;;
20861;SDS011;10591;52.532;13.348;2024-03-08T00:06:30;26.02;;;17.17;;
20861;SDS011;10591;52.532;13.348;2024-03-08T00:09:01;27.65;;;18.05;;
20861;SDS011;10591;52.532;13.348;2024-03-08T00:11:32;25.07;;;16.27;;
20861;SDS011;10591;52.532;13.348;2024-03-08T00:14:03;25.97;;;16.55;;
20861;SDS011;10591;52.532;13.348;2024-03-08T00:16:37;26.07;;;16.95;;
20861;SDS011;10591;52.532;13.348;2024-03-08T00:19:09;28.37;;;16.53;;
20861;SDS011;10591;52.532;13.348;2024-03-08T00:21:40;24.70;;;16.63;;
20861;SDS011;10591;52.532;13.348;2024-03-08T00:24:11;25.17;;;16.30;;
20861;SDS011;10591;52.532;13.348;2024-03-08T00:26:42;25.45;;;16.17;;
20861;SDS011;10591;52.532;13.348;2024-03-08T00:29:13;27.27;;;16.87;;
20861;SDS011;10591;52.532;13.348;2024-03-08T00:31:43;28.63;;;17.90;;
20861;SDS011;10591;52.532;13.348;2024-03-08T00:34:15;25.20;;;17.75;;
20861;SDS011;10591;52.532;13.348;2024-03-08T00:36:47;26.23;;;16.95;;
20861;SDS011;10591;52.532;13.348;2024-03-08T00:39:19;26.30;;;17.27;;
20861;SDS011;10591;52.532;13.348;2024-03-08T00:41:50;25.90;;;17.07;;
20861;SDS011;10591;52.532;13.348;2024-03-08T00:44:21;27.77;;;17.60;;
20861;SDS011;10591;52.532;13.348;2024-03-08T00:46:53;27.73;;;17.55;;
20861;SDS011;10591;52.532;13.348;2024-03-08T00:49:24;26.70;;;17.17;;
20861;SDS011;10591;52.532;13.348;2024-03-08T00:51:54;29.83;;;18.50;;
20861;SDS011;10591;52.532;13.348;2024-03-08T00:54:25;28.47;;;17.37;;
20861;SDS011;10591;52.532;13.348;2024-03-08T00:56:56;27.97;;;17.67;;
20861;SDS011;10591;52.532;13.348;2024-03-08T00:59:27;28.70;;;17.27;;
20861;SDS011;10591;52.532;13.348;2024-03-08T01:01:58;28.07;;;17.80;;
20861;SDS011;10591;52.532;13.348;2024-03-08T01:04:30;29.73;;;18.27;;
20861;SDS011;10591;52.532;13.348;2024-03-08T01:07:02;27.03;;;17.03;;
20861;SDS011;10591;52.532;13.348;2024-03-08T01:09:33;28.53;;;17.80;;
20861;SDS011;10591;52.532;13.348;2024-03-08T01:12:05;27.53;;;17.00;;
20861;SDS011;10591;52.532;13.348;2024-03-08T01:14:36;27.77;;;16.83;;
20861;SDS011;10591;52.532;13.348;2024-03-08T01:17:07;27.43;;;17.07;;
20861;SDS011;10591;52.532;13.348;2024-03-08T01:19:38;29.20;;;17.00;;
20861;SDS011;10591;52.532;13.348;2024-03-08T01:22:09;24.93;;;17.07;;
20861;SDS011;10591;52.532;13.348;2024-03-08T01:24:39;28.30;;;17.60;;
20861;SDS011;10591;52.532;13.348;2024-03-08T01:27:10;26.02;;;17.05;;
20861;SDS011;10591;52.532;13.348;2024-03-08T01:29:41;26.95;;;16.65;;
20861;SDS011;10591;52.532;13.348;2024-03-08T01:32:12;27.80;;;17.17;;
20861;SDS011;10591;52.532;13.348;2024-03-08T01:34:43;30.23;;;18.02;;
20861;SDS011;10591;52.532;13.348;2024-03-08T01:37:14;26.43;;;17.30;;
20861;SDS011;10591;52.532;13.348;2024-03-08T01:39:45;27.03;;;17.33;;
20861;SDS011;10591;52.532;13.348;2024-03-08T01:42:15;28.83;;;16.83;;
20861;SDS011;10591;52.532;13.348;2024-03-08T01:44:46;27.57;;;17.20;;
20861;SDS011;10591;52.532;13.348;2024-03-08T01:47:23;29.85;;;17.15;;
20861;SDS011;10591;52.532;13.348;2024-03-08T01:49:54;30.03;;;18.47;;
20861;SDS011;10591;52.532;13.348;2024-03-08T01:52:25;27.60;;;16.67;;
20861;SDS011;10591;52.532;13.348;2024-03-08T01:54:56;26.90;;;17.80;;
20861;SDS011;10591;52.532;13.348;2024-03-08T01:57:30;27.30;;;17.13;;
20861;SDS011;10591;52.532;13.348;2024-03-08T02:00:06;29.10;;;18.50;;
20861;SDS011;10591;52.532;13.348;2024-03-08T02:02:39;29.90;;;17.23;;
20861;SDS011;10591;52.532;13.348;2024-03-08T02:05:13;28.67;;;16.77;;
20861;SDS011;10591;52.532;13.348;2024-03-08T02:07:44;26.68;;;16.77;;
20861;SDS011;10591;52.532;13.348;2024-03-08T02:10:16;27.83;;;17.10;;
20861;SDS011;10591;52.532;13.348;2024-03-08T02:12:47;26.80;;;16.97;;
20861;SDS011;10591;52.532;13.348;2024-03-08T02:15:18;28.62;;;17.57;;
20861;SDS011;10591;52.532;13.348;2024-03-08T02:17:50;29.90;;;17.63;;
20861;SDS011;10591;52.532;13.348;2024-03-08T02:20:22;29.30;;;16.73;;
20861;SDS011;10591;52.532;13.348;2024-03-08T02:22:54;27.70;;;18.07;;
20861;SDS011;10591;52.532;13.348;2024-03-08T02:25:25;28.20;;;17.53;;
20861;SDS011;10591;52.532;13.348;2024-03-08T02:27:56;29.00;;;17.65;;
20861;SDS011;10591;52.532;13.348;2024-03-08T02:30:27;26.03;;;17.13;;
20861;SDS011;10591;52.532;13.348;2024-03-08T02:32:58;26.43;;;17.03;;
20861;SDS011;10591;52.532;13.348;2024-03-08T02:35:31;25.23;;;16.57;;
20861;SDS011;10591;52.532;13.348;2024-03-08T02:38:03;28.80;;;17.80;;
20861;SDS011;10591;52.532;13.348;2024-03-08T02:40:34;28.47;;;16.90;;
20861;SDS011;10591;52.532;13.348;2024-03-08T02:43:04;28.40;;;17.20;;
20861;SDS011;10591;52.532;13.348;2024-03-08T02:45:35;30.80;;;17.73;;
20861;SDS011;10591;52.532;13.348;2024-03-08T02:48:06;27.60;;;17.80;;
20861;SDS011;10591;52.532;13.348;2024-03-08T02:50:37;28.50;;;18.20;;
20861;SDS011;10591;52.532;13.348;2024-03-08T02:53:10;31.03;;;19.13;;
20861;SDS011;10591;52.532;13.348;2024-03-08T02:55:42;25.73;;;16.40;;
20861;SDS011;10591;52.532;13.348;2024-03-08T02:58:14;25.70;;;17.17;;
20861;SDS011;10591;52.532;13.348;2024-03-08T03:00:45;31.03;;;17.73;;
20861;SDS011;10591;52.532;13.348;2024-03-08T03:03:17;29.70;;;18.42;;
20861;SDS011;10591;52.532;13.348;2024-03-08T03:05:48;30.70;;;18.10;;
20861;SDS011;10591;52.532;13.348;2024-03-08T03:08:19;31.33;;;18.53;;
20861;SDS011;10591;52.532;13.348;2024-03-08T03:10:49;31.60;;;18.23;;
20861;SDS011;10591;52.532;13.348;2024-03-08T03:13:20;29.77;;;18.13;;
20861;SDS011;10591;52.532;13.348;2024-03-08T03:15:51;30.77;;;18.17;;
20861;SDS011;10591;52.532;13.348;2024-03-08T03:18:21;29.77;;;18.07;;
20861;SDS011;10591;52.532;13.348;2024-03-08T03:20:53;29.63;;;18.60;;
20861;SDS011;10591;52.532;13.348;2024-03-08T03:23:24;31.43;;;17.90;;
20861;SDS011;10591;52.532;13.348;2024-03-08T03:25:55;32.00;;;18.50;;
20861;SDS011;10591;52.532;13.348;2024-03-08T03:28:26;29.33;;;18.33;;
20861;SDS011;10591;52.532;13.348;2024-03-08T03:30:57;32.13;;;18.50;;
20861;SDS011;10591;52.532;13.348;2024-03-08T03:33:28;31.90;;;19.17;;
20861;SDS011;10591;52.532;13.348;2024-03-08T03:35:58;31.00;;;20.00;;
20861;SDS011;10591;52.532;13.348;2024-03-08T03:38:30;30.20;;;18.77;;
20861;SDS011;10591;52.532;13.348;2024-03-08T03:41:00;31.57;;;18.63;;
20861;SDS011;10591;52.532;13.348;2024-03-08T03:43:33;29.13;;;19.10;;
20861;SDS011;10591;52.532;13.348;2024-03-08T03:46:07;33.87;;;20.43;;
20861;SDS011;10591;52.532;13.348;2024-03-08T03:48:39;32.33;;;19.90;;
20861;SDS011;10591;52.532;13.348;2024-03-08T03:51:11;30.77;;;18.87;;
20861;SDS011;10591;52.532;13.348;2024-03-08T03:53:44;29.60;;;19.02;;
20861;SDS011;10591;52.532;13.348;2024-03-08T03:56:16;30.73;;;18.50;;
20861;SDS011;10591;52.532;13.348;2024-03-08T03:58:46;32.40;;;19.57;;
20861;SDS011;10591;52.532;13.348;2024-03-08T04:01:18;32.87;;;18.93;;
20861;SDS011;10591;52.532;13.348;2024-03-08T04:03:49;32.87;;;18.93;;
20861;SDS011;10591;52.532;13.348;2024-03-08T04:06:20;32.70;;;19.40;;
20861;SDS011;10591;52.532;13.348;2024-03-08T04:08:52;30.73;;;19.03;;
20861;SDS011;10591;52.532;13.348;2024-03-08T04:11:22;30.90;;;19.63;;
20861;SDS011;10591;52.532;13.348;2024-03-08T04:13:53;30.00;;;18.83;;
20861;SDS011;10591;52.532;13.348;2024-03-08T04:16:24;33.43;;;19.77;;
20861;SDS011;10591;52.532;13.348;2024-03-08T04:18:54;34.37;;;20.17;;
20861;SDS011;10591;52.532;13.348;2024-03-08T04:21:29;34.43;;;20.07;;
20861;SDS011;10591;52.532;13.348;2024-03-08T04:24:00;31.27;;;19.00;;
20861;SDS011;10591;52.532;13.348;2024-03-08T04:26:31;34.40;;;19.87;;
20861;SDS011;10591;52.532;13.348;2024-03-08T04:29:03;34.63;;;20.20;;
20861;SDS011;10591;52.532;13.348;2024-03-08T04:31:33;36.27;;;20.83;;
20861;SDS011;10591;52.532;13.348;2024-03-08T04:34:04;32.37;;;19.70;;
20861;SDS011;10591;52.532;13.348;2024-03-08T04:36:34;31.67;;;19.33;;
20861;SDS011;10591;52.532;13.348;2024-03-08T04:39:06;33.30;;;19.93;;
20861;SDS011;10591;52.532;13.348;2024-03-08T04:41:39;34.63;;;20.97;;
20861;SDS011;10591;52.532;13.348;2024-03-08T04:44:11;33.43;;;20.13;;
20861;SDS011;10591;52.532;13.348;2024-03-08T04:46:42;32.90;;;20.20;;
20861;SDS011;10591;52.532;13.348;2024-03-08T04:49:14;34.40;;;19.57;;
20861;SDS011;10591;52.532;13.348;2024-03-08T04:51:45;31.47;;;19.63;;
20861;SDS011;10591;52.532;13.348;2024-03-08T04:54:15;34.60;;;20.90;;
20861;SDS011;10591;52.532;13.348;2024-03-08T04:56:46;32.93;;;20.17;;
20861;SDS011;10591;52.532;13.348;2024-03-08T04:59:16;36.43;;;20.37;;
20861;SDS011;10591;52.532;13.348;2024-03-08T05:01:49;31.33;;;19.43;;
20861;SDS011;10591;52.532;13.348;2024-03-08T05:04:20;35.90;;;20.90;;
20861;SDS011;10591;52.532;13.348;2024-03-08T05:06:51;33.33;;;20.43;;
20861;SDS011;10591;52.532;13.348;2024-03-08T05:09:22;33.47;;;20.27;;
20861;SDS011;10591;52.532;13.348;2024-03-08T05:11:53;34.93;;;21.30;;
20861;SDS011;10591;52.532;13.348;2024-03-08T05:14:24;35.00;;;20.60;;
20861;SDS011;10591;52.532;13.348;2024-03-08T05:16:55;34.07;;;21.53;;
20861;SDS011;10591;52.532;13.348;2024-03-08T05:19:25;34.97;;;20.23;;
20861;SDS011;10591;52.532;13.348;2024-03-08T05:21:59;31.93;;;19.90;;
20861;SDS011;10591;52.532;13.348;2024-03-08T05:24:30;35.53;;;20.03;;
20861;SDS011;10591;52.532;13.348;2024-03-08T05:27:01;38.50;;;21.30;;
20861;SDS011;10591;52.532;13.348;2024-03-08T05:29:32;33.60;;;20.50;;
20861;SDS011;10591;52.532;13.348;2024-03-08T05:32:02;32.87;;;20.17;;
20861;SDS011;10591;52.532;13.348;2024-03-08T05:34:33;36.20;;;21.50;;
20861;SDS011;10591;52.532;13.348;2024-03-08T05:37:04;39.23;;;21.50;;
20861;SDS011;10591;52.532;13.348;2024-03-08T05:39:36;33.60;;;21.07;;
20861;SDS011;10591;52.532;13.348;2024-03-08T05:42:06;37.10;;;20.77;;
20861;SDS011;10591;52.532;13.348;2024-03-08T05:44:40;36.37;;;20.60;;
20861;SDS011;10591;52.532;13.348;2024-03-08T05:47:10;36.70;;;22.13;;
20861;SDS011;10591;52.532;13.348;2024-03-08T05:49:41;36.03;;;21.07;;
20861;SDS011;10591;52.532;13.348;2024-03-08T05:52:13;36.17;;;21.50;;
20861;SDS011;10591;52.532;13.348;2024-03-08T05:54:44;40.57;;;22.23;;
20861;SDS011;10591;52.532;13.348;2024-03-08T05:57:15;36.10;;;21.77;;
20861;SDS011;10591;52.532;13.348;2024-03-08T05:59:46;35.43;;;21.50;;
20861;SDS011;10591;52.532;13.348;2024-03-08T06:02:18;38.27;;;22.23;;
20861;SDS011;10591;52.532;13.348;2024-03-08T06:04:48;37.67;;;22.43;;
20861;SDS011;10591;52.532;13.348;2024-03-08T06:07:20;35.97;;;21.33;;
20861;SDS011;10591;52.532;13.348;2024-03-08T06:09:51;36.87;;;21.93;;
20861;SDS011;10591;52.532;13.348;2024-03-08T06:12:21;38.40;;;21.30;;
20861;SDS011;10591;52.532;13.348;2024-03-08T06:14:54;34.27;;;22.10;;
20861;SDS011;10591;52.532;13.348;2024-03-08T06:17:25;38.07;;;21.97;;
20861;SDS011;10591;52.532;13.348;2024-03-08T06:19:56;36.00;;;21.40;;
20861;SDS011;10591;52.532;13.348;2024-03-08T06:22:26;36.10;;;21.60;;
20861;SDS011;10591;52.532;13.348;2024-03-08T06:24:59;38.20;;;23.00;;
20861;SDS011;10591;52.532;13.348;2024-03-08T06:27:30;35.27;;;23.10;;
20861;SDS011;10591;52.532;13.348;2024-03-08T06:30:02;40.50;;;22.63;;
20861;SDS011;10591;52.532;13.348;2024-03-08T06:32:33;36.90;;;21.83;;
20861;SDS011;10591;52.532;13.348;2024-03-08T06:35:05;45.80;;;27.30;;
20861;SDS011;10591;52.532;13.348;2024-03-08T06:37:36;37.83;;;22.13;;
20861;SDS011;10591;52.532;13.348;2024-03-08T06:40:07;36.57;;;21.80;;
20861;SDS011;10591;52.532;13.348;2024-03-08T06:42:41;35.23;;;21.80;;
20861;SDS011;10591;52.532;13.348;2024-03-08T06:45:13;34.50;;;21.80;;
20861;SDS011;10591;52.532;13.348;2024-03-08T06:47:46;33.00;;;21.67;;
20861;SDS011;10591;52.532;13.348;2024-03-08T06:50:17;35.60;;;22.37;;
20861;SDS011;10591;52.532;13.348;2024-03-08T06:52:48;36.80;;;22.43;;
20861;SDS011;10591;52.532;13.348;2024-03-08T06:55:20;37.60;;;22.07;;
20861;SDS011;10591;52.532;13.348;2024-03-08T06:57:51;34.13;;;21.90;;
20861;SDS011;10591;52.532;13.348;2024-03-08T07:00:25;36.00;;;21.53;;
20861;SDS011;10591;52.532;13.348;2024-03-08T07:02:57;33.80;;;21.30;;
20861;SDS011;10591;52.532;13.348;2024-03-08T07:05:31;36.73;;;22.73;;
20861;SDS011;10591;52.532;13.348;2024-03-08T07:08:02;35.93;;;22.07;;
20861;SDS011;10591;52.532;13.348;2024-03-08T07:10:35;34.33;;;21.67;;
20861;SDS011;10591;52.532;13.348;2024-03-08T07:13:06;31.97;;;21.12;;
20861;SDS011;10591;52.532;13.348;2024-03-08T07:15:37;34.20;;;21.65;;
20861;SDS011;10591;52.532;13.348;2024-03-08T07:18:08;38.85;;;21.52;;
20861;SDS011;10591;52.532;13.348;2024-03-08T07:20:41;31.87;;;20.80;;
20861;SDS011;10591;52.532;13.348;2024-03-08T07:23:13;30.60;;;20.27;;
20861;SDS011;10591;52.532;13.348;2024-03-08T07:25:46;30.83;;;19.90;;
20861;SDS011;10591;52.532;13.348;2024-03-08T07:28:18;34.93;;;21.80;;
20861;SDS011;10591;52.532;13.348;2024-03-08T07:30:49;29.07;;;19.43;;
20861;SDS011;10591;52.532;13.348;2024-03-08T07:33:23;31.37;;;19.83;;
20861;SDS011;10591;52.532;13.348;2024-03-08T07:35:54;31.93;;;19.30;;
20861;SDS011;10591;52.532;13.348;2024-03-08T07:38:25;33.93;;;19.63;;
20861;SDS011;10591;52.532;13.348;2024-03-08T07:40:56;33.03;;;20.43;;
20861;SDS011;10591;52.532;13.348;2024-03-08T07:43:26;32.33;;;20.03;;
20861;SDS011;10591;52.532;13.348;2024-03-08T07:45:57;28.77;;;19.80;;
20861;SDS011;10591;52.532;13.348;2024-03-08T07:48:27;29.80;;;19.07;;
20861;SDS011;10591;52.532;13.348;2024-03-08T07:50:59;28.47;;;17.80;;
20861;SDS011;10591;52.532;13.348;2024-03-08T07:53:31;30.23;;;19.13;;
20861;SDS011;10591;52.532;13.348;2024-03-08T07:56:04;32.17;;;20.83;;
20861;SDS011;10591;52.532;13.348;2024-03-08T07:58:38;33.93;;;21.77;;
20861;SDS011;10591;52.532;13.348;2024-03-08T08:01:19;39.77;;;26.93;;
20861;SDS011;10591;52.532;13.348;2024-03-08T08:03:50;47.13;;;31.13;;
20861;SDS011;10591;52.532;13.348;2024-03-08T08:06:21;51.83;;;35.20;;
20861;SDS011;10591;52.532;13.348;2024-03-08T08:08:52;57.85;;;40.23;;
20861;SDS011;10591;52.532;13.348;2024-03-08T08:11:27;65.17;;;42.63;;
20861;SDS011;10591;52.532;13.348;2024-03-08T08:13:58;65.17;;;44.23;;
20861;SDS011;10591;52.532;13.348;2024-03-08T08:16:29;67.40;;;47.58;;
20861;SDS011;10591;52.532;13.348;2024-03-08T08:19:01;74.05;;;50.35;;
20861;SDS011;10591;52.532;13.348;2024-03-08T08:21:36;81.50;;;53.47;;
20861;SDS011;10591;52.532;13.348;2024-03-08T08:24:09;74.30;;;50.00;;
20861;SDS011;10591;52.532;13.348;2024-03-08T08:26:40;61.23;;;42.60;;
20861;SDS011;10591;52.532;13.348;2024-03-08T08:29:13;63.75;;;45.23;;
20861;SDS011;10591;52.532;13.348;2024-03-08T08:31:44;60.93;;;40.40;;
20861;SDS011;10591;52.532;13.348;2024-03-08T08:34:16;60.83;;;39.05;;
20861;SDS011;10591;52.532;13.348;2024-03-08T08:36:48;49.53;;;35.17;;
20861;SDS011;10591;52.532;13.348;2024-03-08T08:39:19;47.33;;;31.93;;
20861;SDS011;10591;52.532;13.348;2024-03-08T08:41:51;44.98;;;30.72;;
20861;SDS011;10591;52.532;13.348;2024-03-08T08:44:23;44.33;;;30.02;;
20861;SDS011;10591;52.532;13.348;2024-03-08T08:46:55;43.07;;;29.83;;
20861;SDS011;10591;52.532;13.348;2024-03-08T08:49:29;42.53;;;26.33;;
20861;SDS011;10591;52.532;13.348;2024-03-08T08:52:01;39.87;;;26.63;;
20861;SDS011;10591;52.532;13.348;2024-03-08T08:54:33;36.75;;;24.92;;
20861;SDS011;10591;52.532;13.348;2024-03-08T08:57:06;27.67;;;19.57;;
20861;SDS011;10591;52.532;13.348;2024-03-08T08:59:37;30.15;;;19.67;;
20861;SDS011;10591;52.532;13.348;2024-03-08T09:02:10;27.82;;;19.55;;
20861;SDS011;10591;52.532;13.348;2024-03-08T09:04:43;30.85;;;20.25;;
20861;SDS011;10591;52.532;13.348;2024-03-08T09:07:15;31.02;;;20.08;;
20861;SDS011;10591;52.532;13.348;2024-03-08T09:09:49;26.95;;;18.67;;
20861;SDS011;10591;52.532;13.348;2024-03-08T09:12:22;29.18;;;18.55;;
20861;SDS011;10591;52.532;13.348;2024-03-08T09:14:54;29.02;;;19.65;;
20861;SDS011;10591;52.532;13.348;2024-03-08T09:17:25;30.30;;;19.65;;
20861;SDS011;10591;52.532;13.348;2024-03-08T09:19:56;27.45;;;18.02;;
20861;SDS011;10591;52.532;13.348;2024-03-08T09:22:27;31.05;;;19.40;;
20861;SDS011;10591;52.532;13.348;2024-03-08T09:25:01;27.45;;;18.55;;
20861;SDS011;10591;52.532;13.348;2024-03-08T09:27:35;28.42;;;19.15;;
20861;SDS011;10591;52.532;13.348;2024-03-08T09:30:08;31.40;;;19.87;;
20861;SDS011;10591;52.532;13.348;2024-03-08T09:32:41;27.75;;;18.67;;
20861;SDS011;10591;52.532;13.348;2024-03-08T09:35:13;27.02;;;18.07;;
20861;SDS011;10591;52.532;13.348;2024-03-08T09:37:44;29.18;;;18.05;;
20861;SDS011;10591;52.532;13.348;2024-03-08T09:40:17;27.32;;;17.75;;
20861;SDS011;10591;52.532;13.348;2024-03-08T09:42:48;29.02;;;18.07;;
20861;SDS011;10591;52.532;13.348;2024-03-08T09:45:21;27.07;;;18.65;;
20861;SDS011;10591;52.532;13.348;2024-03-08T09:47:52;30.82;;;19.87;;
20861;SDS011;10591;52.532;13.348;2024-03-08T09:50:24;26.23;;;17.82;;
20861;SDS011;10591;52.532;13.348;2024-03-08T09:52:58;26.82;;;18.00;;
20861;SDS011;10591;52.532;13.348;2024-03-08T09:55:30;28.77;;;19.45;;
20861;SDS011;10591;52.532;13.348;2024-03-08T09:58:06;37.05;;;22.00;;
20861;SDS011;10591;52.532;13.348;2024-03-08T10:00:47;28.02;;;18.67;;
20861;SDS011;10591;52.532;13.348;2024-03-08T10:03:19;26.00;;;17.32;;
20861;SDS011;10591;52.532;13.348;2024-03-08T10:05:53;26.57;;;17.02;;
20861;SDS011;10591;52.532;13.348;2024-03-08T10:08:29;29.02;;;17.02;;
20861;SDS011;10591;52.532;13.348;2024-03-08T10:11:00;23.98;;;16.32;;
20861;SDS011;10591;52.532;13.348;2024-03-08T10:13:32;25.88;;;17.02;;
20861;SDS011;10591;52.532;13.348;2024-03-08T10:16:03;24.57;;;17.27;;
20861;SDS011;10591;52.532;13.348;2024-03-08T10:18:34;29.15;;;17.92;;
20861;SDS011;10591;52.532;13.348;2024-03-08T10:21:05;23.92;;;16.42;;
20861;SDS011;10591;52.532;13.348;2024-03-08T10:23:43;25.15;;;17.62;;
20861;SDS011;10591;52.532;13.348;2024-03-08T10:26:15;24.07;;;16.50;;
20861;SDS011;10591;52.532;13.348;2024-03-08T10:28:50;24.35;;;16.87;;
20861;SDS011;10591;52.532;13.348;2024-03-08T10:31:22;23.15;;;16.27;;
20861;SDS011;10591;52.532;13.348;2024-03-08T10:33:54;24.95;;;16.67;;
20861;SDS011;10591;52.532;13.348;2024-03-08T10:36:25;26.90;;;15.75;;
20861;SDS011;10591;52.532;13.348;2024-03-08T10:38:57;21.65;;;15.53;;
20861;SDS011;10591;52.532;13.348;2024-03-08T10:41:31;23.47;;;16.50;;
20861;SDS011;10591;52.532;13.348;2024-03-08T10:44:10;24.00;;;16.35;;
20861;SDS011;10591;52.532;13.348;2024-03-08T10:49:31;22.73;;;15.13;;
20861;SDS011;10591;52.532;13.348;2024-03-08T10:52:04;24.43;;;16.13;;
20861;SDS011;10591;52.532;13.348;2024-03-08T10:54:37;22.25;;;15.25;;
20861;SDS011;10591;52.532;13.348;2024-03-08T10:57:10;21.73;;;14.30;;
20861;SDS011;10591;52.532;13.348;2024-03-08T10:59:45;22.50;;;15.53;;
20861;SDS011;10591;52.532;13.348;2024-03-08T11:02:19;23.60;;;15.03;;
20861;SDS011;10591;52.532;13.348;2024-03-08T11:04:53;22.07;;;15.13;;
20861;SDS011;10591;52.532;13.348;2024-03-08T11:07:26;23.73;;;15.18;;
20861;SDS011;10591;52.532;13.348;2024-03-08T11:09:58;20.65;;;14.43;;
20861;SDS011;10591;52.532;13.348;2024-03-08T11:12:29;21.87;;;14.33;;
20861;SDS011;10591;52.532;13.348;2024-03-08T11:15:02;20.62;;;14.15;;
20861;SDS011;10591;52.532;13.348;2024-03-08T11:17:45;17.37;;;12.98;;
20861;SDS011;10591;52.532;13.348;2024-03-08T11:20:20;19.90;;;13.75;;
20861;SDS011;10591;52.532;13.348;2024-03-08T11:22:54;20.08;;;14.13;;
20861;SDS011;10591;52.532;13.348;2024-03-08T11:25:38;19.82;;;13.40;;
20861;SDS011;10591;52.532;13.348;2024-03-08T11:28:18;21.75;;;14.50;;
20861;SDS011;10591;52.532;13.348;2024-03-08T11:33:34;21.55;;;13.85;;
20861;SDS011;10591;52.532;13.348;2024-03-08T11:36:22;18.67;;;13.53;;
20861;SDS011;10591;52.532;13.348;2024-03-08T11:38:53;18.60;;;13.38;;
20861;SDS011;10591;52.532;13.348;2024-03-08T11:41:26;18.48;;;13.45;;
20861;SDS011;10591;52.532;13.348;2024-03-08T11:44:03;19.90;;;13.75;;
20861;SDS011;10591;52.532;13.348;2024-03-08T11:46:35;19.82;;;13.10;;
20861;SDS011;10591;52.532;13.348;2024-03-08T11:49:08;18.60;;;13.32;;
20861;SDS011;10591;52.532;13.348;2024-03-08T11:51:38;20.92;;;12.82;;
20861;SDS011;10591;52.532;13.348;2024-03-08T11:54:14;18.65;;;13.38;;
20861;SDS011;10591;52.532;13.348;2024-03-08T11:56:45;18.92;;;13.03;;
20861;SDS011;10591;52.532;13.348;2024-03-08T11:59:16;19.62;;;13.32;;
20861;SDS011;10591;52.532;13.348;2024-03-08T12:02:09;20.25;;;14.80;;
20861;SDS011;10591;52.532;13.348;2024-03-08T12:04:31;21.55;;;13.62;;
20861;SDS011;10591;52.532;13.348;2024-03-08T12:07:04;19.92;;;14.10;;
20861;SDS011;10591;52.532;13.348;2024-03-08T12:09:37;18.45;;;13.70;;
20861;SDS011;10591;52.532;13.348;2024-03-08T12:12:07;20.30;;;13.95;;
20861;SDS011;10591;52.532;13.348;2024-03-08T12:14:43;22.50;;;14.85;;
20861;SDS011;10591;52.532;13.348;2024-03-08T12:17:14;20.40;;;14.63;;
20861;SDS011;10591;52.532;13.348;2024-03-08T12:19:49;19.45;;;14.50;;
20861;SDS011;10591;52.532;13.348;2024-03-08T12:22:25;20.68;;;14.18;;
20861;SDS011;10591;52.532;13.348;2024-03-08T12:25:04;21.87;;;15.00;;
20861;SDS011;10591;52.532;13.348;2024-03-08T12:27:39;19.95;;;14.30;;
20861;SDS011;10591;52.532;13.348;2024-03-08T12:30:23;22.93;;;15.08;;
20861;SDS011;10591;52.532;13.348;2024-03-08T12:32:59;20.30;;;14.28;;
20861;SDS011;10591;52.532;13.348;2024-03-08T12:35:30;19.55;;;14.07;;
20861;SDS011;10591;52.532;13.348;2024-03-08T12:38:02;19.40;;;14.28;;
20861;SDS011;10591;52.532;13.348;2024-03-08T12:40:34;20.90;;;14.58;;
20861;SDS011;10591;52.532;13.348;2024-03-08T12:43:07;18.67;;;14.87;;
20861;SDS011;10591;52.532;13.348;2024-03-08T12:45:38;22.42;;;13.53;;
20861;SDS011;10591;52.532;13.348;2024-03-08T12:48:12;21.12;;;14.93;;
20861;SDS011;10591;52.532;13.348;2024-03-08T12:50:46;18.42;;;13.75;;
20861;SDS011;10591;52.532;13.348;2024-03-08T12:53:17;19.20;;;12.98;;
20861;SDS011;10591;52.532;13.348;2024-03-08T12:55:50;19.07;;;14.10;;
20861;SDS011;10591;52.532;13.348;2024-03-08T12:58:21;20.10;;;14.13;;
20861;SDS011;10591;52.532;13.348;2024-03-08T13:00:52;22.02;;;14.95;;
20861;SDS011;10591;52.532;13.348;2024-03-08T13:03:23;20.75;;;14.70;;
20861;SDS011;10591;52.532;13.348;2024-03-08T13:05:54;20.23;;;13.95;;
20861;SDS011;10591;52.532;13.348;2024-03-08T13:08:26;18.82;;;14.53;;
20861;SDS011;10591;52.532;13.348;2024-03-08T13:10:58;20.43;;;14.07;;
20861;SDS011;10591;52.532;13.348;2024-03-08T13:13:29;19.52;;;14.10;;
20861;SDS011;10591;52.532;13.348;2024-03-08T13:16:00;19.12;;;14.30;;
20861;SDS011;10591;52.532;13.348;2024-03-08T13:18:31;20.55;;;14.90;;
20861;SDS011;10591;52.532;13.348;2024-03-08T13:21:03;18.90;;;14.35;;
20861;SDS011;10591;52.532;13.348;2024-03-08T13:23:36;19.52;;;14.28;;
20861;SDS011;10591;52.532;13.348;2024-03-08T13:26:10;18.60;;;14.18;;
20861;SDS011;10591;52.532;13.348;2024-03-08T13:28:43;18.90;;;13.65;;
20861;SDS011;10591;52.532;13.348;2024-03-08T13:31:18;22.75;;;14.03;;
20861;SDS011;10591;52.532;13.348;2024-03-08T13:33:52;18.42;;;13.83;;
20861;SDS011;10591;52.532;13.348;2024-03-08T13:36:25;19.20;;;14.25;;
20861;SDS011;10591;52.532;13.348;2024-03-08T13:38:58;19.92;;;13.80;;
20861;SDS011;10591;52.532;13.348;2024-03-08T13:41:28;19.23;;;13.10;;
20861;SDS011;10591;52.532;13.348;2024-03-08T13:44:01;17.67;;;13.00;;
20861;SDS011;10591;52.532;13.348;2024-03-08T13:46:32;19.15;;;13.28;;
20861;SDS011;10591;52.532;13.348;2024-03-08T13:49:06;19.15;;;13.95;;
20861;SDS011;10591;52.532;13.348;2024-03-08T13:51:38;18.50;;;13.30;;
20861;SDS011;10591;52.532;13.348;2024-03-08T13:54:10;19.85;;;14.50;;
20861;SDS011;10591;52.532;13.348;2024-03-08T13:56:44;19.07;;;14.03;;
20861;SDS011;10591;52.532;13.348;2024-03-08T13:59:15;22.42;;;14.50;;
20861;SDS011;10591;52.532;13.348;2024-03-08T14:01:47;18.57;;;13.35;;
20861;SDS011;10591;52.532;13.348;2024-03-08T14:04:19;19.75;;;12.93;;
20861;SDS011;10591;52.532;13.348;2024-03-08T14:06:50;19.05;;;13.22;;
20861;SDS011;10591;52.532;13.348;2024-03-08T14:09:21;17.45;;;12.70;;
20861;SDS011;10591;52.532;13.348;2024-03-08T14:11:53;16.60;;;11.83;;
20861;SDS011;10591;52.532;13.348;2024-03-08T14:14:24;17.57;;;13.15;;
20861;SDS011;10591;52.532;13.348;2024-03-08T14:16:55;17.57;;;12.95;;
20861;SDS011;10591;52.532;13.348;2024-03-08T14:19:33;17.55;;;12.73;;
20861;SDS011;10591;52.532;13.348;2024-03-08T14:22:04;19.05;;;13.72;;
20861;SDS011;10591;52.532;13.348;2024-03-08T14:24:35;17.77;;;12.53;;
20861;SDS011;10591;52.532;13.348;2024-03-08T14:27:06;17.35;;;13.55;;
20861;SDS011;10591;52.532;13.348;2024-03-08T14:29:38;17.52;;;12.80;;
20861;SDS011;10591;52.532;13.348;2024-03-08T14:32:08;16.73;;;13.25;;
20861;SDS011;10591;52.532;13.348;2024-03-08T14:34:41;20.68;;;14.15;;
20861;SDS011;10591;52.532;13.348;2024-03-08T14:37:12;20.75;;;14.87;;
20861;SDS011;10591;52.532;13.348;2024-03-08T14:39:44;21.10;;;15.68;;
20861;SDS011;10591;52.532;13.348;2024-03-08T14:42:15;22.60;;;14.63;;